createdAt,value
2023-02-01T00:01:08.289Z,87.96
2023-02-01T00:03:34.950Z,87.93
2023-02-01T00:06:02.179Z,87.69
2023-02-01T00:08:28.688Z,87.99
2023-02-01T00:11:07.497Z,88.09
2023-02-01T00:13:36.144Z,87.47
2023-02-01T00:16:19.120Z,87.69
2023-02-01T00:18:46.849Z,87.63
2023-02-01T00:21:15.265Z,87.60
2023-02-01T00:23:42.049Z,87.90
2023-02-01T00:26:15.062Z,87.98
2023-02-01T00:28:41.600Z,87.94
2023-02-01T00:31:17.154Z,88.05
2023-02-01T00:33:43.642Z,88.15
2023-02-01T00:36:10.871Z,88.01
2023-02-01T00:38:38.629Z,87.70
2023-02-01T00:41:14.138Z,87.83
2023-02-01T00:43:41.157Z,87.92
2023-02-01T00:46:08.214Z,87.46
2023-02-01T00:48:35.063Z,88.03
2023-02-01T00:51:03.036Z,87.76
2023-02-01T00:53:30.544Z,87.43
2023-02-01T00:55:57.758Z,86.96
2023-02-01T00:58:27.742Z,86.99
2023-02-01T01:01:10.812Z,86.79
2023-02-01T01:03:42.220Z,87.28
2023-02-01T01:08:56.715Z,87.32
2023-02-01T01:11:35.250Z,87.48
2023-02-01T01:14:02.108Z,87.58
2023-02-01T01:16:31.225Z,87.20
2023-02-01T01:18:58.761Z,87.28
2023-02-01T01:21:28.987Z,87.83
2023-02-01T01:23:55.676Z,87.00
2023-02-01T01:26:25.291Z,87.07
2023-02-01T01:28:52.572Z,87.40
2023-02-01T01:31:31.079Z,86.66
2023-02-01T01:33:59.836Z,86.31
2023-02-01T01:36:27.791Z,85.87
2023-02-01T01:38:54.799Z,86.21
2023-02-01T01:41:32.895Z,85.78
2023-02-01T01:44:02.445Z,86.21
2023-02-01T01:46:37.649Z,85.66
2023-02-01T01:49:12.648Z,86.52
2023-02-01T01:51:44.684Z,86.45
2023-02-01T01:54:24.912Z,85.87
2023-02-01T01:56:57.865Z,86.15
2023-02-01T01:59:25.537Z,85.83
2023-02-01T02:01:53.359Z,85.80
2023-02-01T02:04:20.772Z,85.65
2023-02-01T02:07:01.235Z,85.58
2023-02-01T02:09:27.713Z,85.63
2023-02-01T02:11:54.284Z,85.91
2023-02-01T02:14:23.973Z,85.57
2023-02-01T02:16:56.744Z,85.88
2023-02-01T02:19:47.149Z,85.44
2023-02-01T02:22:40.344Z,85.99
2023-02-01T02:25:18.970Z,85.72
2023-02-01T02:28:23.198Z,85.74
2023-02-01T02:31:21.041Z,86.20
2023-02-01T02:34:09.460Z,86.30
2023-02-01T02:36:44.114Z,86.41
2023-02-01T02:39:23.279Z,86.26
2023-02-01T02:42:34.115Z,86.42
2023-02-01T02:45:36.868Z,86.44
2023-02-01T02:48:26.994Z,85.99
2023-02-01T02:51:25.289Z,86.21
2023-02-01T02:54:28.380Z,86.35
2023-02-01T02:57:16.716Z,86.20
2023-02-01T03:00:05.063Z,86.65
2023-02-01T03:02:51.473Z,85.72
2023-02-01T03:05:18.100Z,85.34
2023-02-01T03:07:58.225Z,85.44
2023-02-01T03:10:30.708Z,85.35
2023-02-01T03:13:04.496Z,85.58
2023-02-01T03:15:58.390Z,84.75
2023-02-01T03:18:51.190Z,85.33
2023-02-01T03:21:24.960Z,85.00
2023-02-01T03:23:53.336Z,84.96
2023-02-01T03:26:22.932Z,84.92
2023-02-01T03:28:56.951Z,85.14
2023-02-01T03:31:24.745Z,85.42
2023-02-01T03:33:51.654Z,84.84
2023-02-01T03:36:32.708Z,85.27
2023-02-01T03:39:17.535Z,85.34
2023-02-01T03:41:51.200Z,85.25
2023-02-01T03:44:17.519Z,85.74
2023-02-01T03:46:52.486Z,85.39
2023-02-01T03:49:28.594Z,84.94
2023-02-01T03:51:57.880Z,85.30
2023-02-01T03:54:26.265Z,85.00
2023-02-01T03:56:55.133Z,85.60
2023-02-01T03:59:21.661Z,85.14
2023-02-01T04:01:48.292Z,85.70
2023-02-01T04:04:20.797Z,85.48
2023-02-01T04:06:49.805Z,85.99
2023-02-01T04:09:16.920Z,85.51
2023-02-01T04:11:43.966Z,85.82
2023-02-01T04:14:10.777Z,86.07
2023-02-01T04:16:37.506Z,86.24
2023-02-01T04:19:03.961Z,86.28
2023-02-01T04:21:30.509Z,86.06
2023-02-01T04:23:56.956Z,85.75
2023-02-01T04:26:23.426Z,85.82
2023-02-01T04:28:49.967Z,85.75
2023-02-01T04:31:17.621Z,85.50
2023-02-01T04:33:47.552Z,85.60
2023-02-01T04:36:34.489Z,85.05
2023-02-01T04:39:01.221Z,85.67
2023-02-01T04:41:27.708Z,85.68
2023-02-01T04:43:54.302Z,85.84
2023-02-01T04:46:20.807Z,85.72
2023-02-01T04:48:47.331Z,85.77
2023-02-01T04:51:13.981Z,85.51
2023-02-01T04:53:40.416Z,85.38
2023-02-01T04:56:07.353Z,85.75
2023-02-01T04:58:33.875Z,85.78
2023-02-01T05:01:05.121Z,85.67
2023-02-01T05:03:35.830Z,85.51
2023-02-01T05:06:05.024Z,85.46
2023-02-01T05:08:32.596Z,85.69
2023-02-01T05:11:00.207Z,85.57
2023-02-01T05:13:45.348Z,85.40
2023-02-01T05:16:12.060Z,84.86
2023-02-01T05:18:39.041Z,85.20
2023-02-01T05:21:05.756Z,85.40
2023-02-01T05:23:32.441Z,85.55
2023-02-01T05:26:02.736Z,85.51
2023-02-01T05:28:29.809Z,85.37
2023-02-01T05:30:56.744Z,85.75
2023-02-01T05:33:23.284Z,85.60
2023-02-01T05:35:51.371Z,85.41
2023-02-01T05:38:17.924Z,85.25
2023-02-01T05:40:50.399Z,84.93
2023-02-01T05:43:16.784Z,85.67
2023-02-01T05:45:44.335Z,85.58
2023-02-01T05:48:10.878Z,85.45
2023-02-01T05:50:37.323Z,85.77
2023-02-01T05:53:03.876Z,85.70
2023-02-01T05:55:30.366Z,85.59
2023-02-01T05:57:56.823Z,85.94
2023-02-01T06:00:24.229Z,85.96
2023-02-01T06:02:50.927Z,86.70
2023-02-01T06:05:17.499Z,86.36
2023-02-01T06:07:43.983Z,86.08
2023-02-01T06:10:10.958Z,85.83
2023-02-01T06:12:38.067Z,86.33
2023-02-01T06:15:05.034Z,86.33
2023-02-01T06:17:34.675Z,86.31
2023-02-01T06:20:01.101Z,86.24
2023-02-01T06:22:27.553Z,86.43
2023-02-01T06:24:53.977Z,86.30
2023-02-01T06:27:20.418Z,86.35
2023-02-01T06:29:47.001Z,85.77
2023-02-01T06:32:13.511Z,85.88
2023-02-01T06:34:40.534Z,86.07
2023-02-01T06:37:06.953Z,86.22
2023-02-01T06:39:33.509Z,86.17
2023-02-01T06:42:00.221Z,85.73
2023-02-01T06:44:26.667Z,85.81
2023-02-01T06:46:53.102Z,85.80
2023-02-01T06:49:20.810Z,86.01
2023-02-01T06:51:47.616Z,85.89
2023-02-01T06:54:14.288Z,86.02
2023-02-01T06:56:40.743Z,86.28
2023-02-01T06:59:08.543Z,86.01
2023-02-01T07:01:35.078Z,86.18
2023-02-01T07:04:01.665Z,86.51
2023-02-01T07:06:28.215Z,86.62
2023-02-01T07:08:56.832Z,86.12
2023-02-01T07:11:23.685Z,86.29
2023-02-01T07:13:50.759Z,86.13
2023-02-01T07:16:19.877Z,86.64
2023-02-01T07:18:47.191Z,86.18
2023-02-01T07:21:14.280Z,86.21
2023-02-01T07:23:40.899Z,86.57
2023-02-01T07:26:10.525Z,86.68
2023-02-01T07:28:38.505Z,86.78
2023-02-01T07:31:07.106Z,86.57
2023-02-01T07:36:27.312Z,86.73
2023-02-01T07:38:56.501Z,86.51
2023-02-01T07:41:23.572Z,86.76
2023-02-01T07:44:07.783Z,86.70
2023-02-01T07:46:46.387Z,86.50
2023-02-01T07:49:14.981Z,86.27
2023-02-01T07:51:53.635Z,86.18
2023-02-01T07:54:20.280Z,86.09
2023-02-01T07:56:47.401Z,85.63
2023-02-01T07:59:14.188Z,85.92
2023-02-01T08:01:43.035Z,85.71
2023-02-01T08:06:59.241Z,85.48
2023-02-01T08:09:28.830Z,85.34
2023-02-01T08:11:55.239Z,85.34
2023-02-01T08:14:21.789Z,85.35
2023-02-01T08:16:48.247Z,85.31
2023-02-01T08:19:14.786Z,85.67
2023-02-01T08:21:41.598Z,85.32
2023-02-01T08:24:10.532Z,85.58
2023-02-01T08:26:37.047Z,86.22
2023-02-01T08:29:05.634Z,85.02
2023-02-01T08:31:32.256Z,83.63
2023-02-01T08:34:05.281Z,83.91
2023-02-01T08:36:32.819Z,82.07
2023-02-01T08:38:59.499Z,78.58
2023-02-01T08:41:29.997Z,79.91
2023-02-01T08:43:58.008Z,81.26
2023-02-01T08:46:24.799Z,82.19
2023-02-01T08:48:51.980Z,82.40
2023-02-01T08:51:20.363Z,81.19
2023-02-01T08:53:47.227Z,76.03
2023-02-01T08:56:16.510Z,74.34
2023-02-01T08:58:49.101Z,76.95
2023-02-01T09:01:17.949Z,78.87
2023-02-01T09:03:44.998Z,79.31
2023-02-01T09:06:13.891Z,80.94
2023-02-01T09:08:41.897Z,81.50
2023-02-01T09:11:12.653Z,81.72
2023-02-01T09:13:42.253Z,81.87
2023-02-01T09:16:08.974Z,81.35
2023-02-01T09:18:36.091Z,81.18
2023-02-01T09:21:11.759Z,80.31
2023-02-01T09:23:38.186Z,80.11
2023-02-01T09:26:05.990Z,80.50
2023-02-01T09:28:41.629Z,80.60
2023-02-01T09:31:08.166Z,81.11
2023-02-01T09:33:34.661Z,80.81
2023-02-01T09:36:03.696Z,80.52
2023-02-01T09:38:31.078Z,80.83
2023-02-01T09:41:01.738Z,81.22
2023-02-01T09:43:51.331Z,81.01
2023-02-01T09:46:33.929Z,81.14
2023-02-01T09:49:11.594Z,81.10
2023-02-01T09:51:42.373Z,81.74
2023-02-01T09:54:22.839Z,81.35
2023-02-01T09:57:08.889Z,81.05
2023-02-01T09:59:53.605Z,81.05
2023-02-01T10:02:26.764Z,81.80
2023-02-01T10:04:58.821Z,81.85
2023-02-01T10:08:13.644Z,81.58
2023-02-01T10:10:50.555Z,81.37
2023-02-01T10:13:39.694Z,81.34
2023-02-01T10:16:48.272Z,81.50
2023-02-01T10:19:48.099Z,81.89
2023-02-01T10:23:08.745Z,82.18
2023-02-01T10:25:38.093Z,83.08
2023-02-01T10:28:05.496Z,83.30
2023-02-01T10:30:41.614Z,84.20
2023-02-01T10:33:19.477Z,84.62
2023-02-01T10:35:47.426Z,84.74
2023-02-01T10:38:31.206Z,84.92
2023-02-01T10:41:20.633Z,85.57
2023-02-01T10:43:51.440Z,85.38
2023-02-01T10:46:18.513Z,85.37
2023-02-01T10:48:45.141Z,85.67
2023-02-01T10:51:20.860Z,85.80
2023-02-01T10:53:54.009Z,85.46
2023-02-01T10:56:42.598Z,85.64
2023-02-01T10:59:19.784Z,85.43
2023-02-01T11:01:49.422Z,85.90
2023-02-01T11:04:18.895Z,85.19
2023-02-01T11:07:05.443Z,85.61
2023-02-01T11:09:32.513Z,86.33
2023-02-01T11:12:00.523Z,86.04
2023-02-01T11:14:34.801Z,85.80
2023-02-01T11:17:13.379Z,85.72
2023-02-01T11:19:39.805Z,85.07
2023-02-01T11:22:06.797Z,85.21
2023-02-01T11:24:36.845Z,86.13
2023-02-01T11:27:07.130Z,85.20
2023-02-01T11:29:38.970Z,85.43
2023-02-01T11:32:06.124Z,86.02
2023-02-01T11:34:48.600Z,85.09
2023-02-01T11:37:21.736Z,85.51
2023-02-01T11:40:17.508Z,85.35
2023-02-01T11:42:59.428Z,86.32
2023-02-01T11:45:28.763Z,86.59
2023-02-01T11:47:57.129Z,86.52
2023-02-01T11:50:35.560Z,86.19
2023-02-01T11:53:53.125Z,84.97
2023-02-01T11:56:28.572Z,87.53
2023-02-01T11:59:16.320Z,86.21
2023-02-01T12:01:42.815Z,87.30
2023-02-01T12:04:37.060Z,87.36
2023-02-01T12:07:28.964Z,85.41
2023-02-01T12:10:23.396Z,84.81
2023-02-01T12:13:04.851Z,85.92
2023-02-01T12:15:48.175Z,86.38
2023-02-01T12:18:23.681Z,84.74
2023-02-01T12:21:23.881Z,84.10
2023-02-01T12:23:50.317Z,84.14
2023-02-01T12:26:22.662Z,84.59
2023-02-01T12:29:21.520Z,84.50
2023-02-01T12:31:55.862Z,82.82
2023-02-01T12:34:37.702Z,84.42
2023-02-01T12:37:29.252Z,83.37
2023-02-01T12:40:11.831Z,83.76
2023-02-01T12:42:47.469Z,84.57
2023-02-01T12:45:31.855Z,84.04
2023-02-01T12:48:22.415Z,84.50
2023-02-01T12:50:54.137Z,83.46
2023-02-01T12:53:27.017Z,83.55
2023-02-01T12:55:56.535Z,83.29
2023-02-01T12:58:23.023Z,83.71
2023-02-01T13:01:09.644Z,83.16
2023-02-01T13:03:54.029Z,82.92
2023-02-01T13:06:22.683Z,83.14
2023-02-01T13:09:03.108Z,83.53
2023-02-01T13:11:34.861Z,82.94
2023-02-01T13:14:25.923Z,83.02
2023-02-01T13:16:58.779Z,83.13
2023-02-01T13:19:58.517Z,83.15
2023-02-01T13:22:42.251Z,83.02
2023-02-01T13:25:11.548Z,82.86
2023-02-01T13:27:39.025Z,83.55
2023-02-01T13:30:21.059Z,83.13
2023-02-01T13:33:52.641Z,82.99
2023-02-01T13:35:58.689Z,83.01
2023-02-01T13:38:56.314Z,82.88
2023-02-01T13:41:29.483Z,82.54
2023-02-01T13:44:07.409Z,81.97
2023-02-01T13:46:46.405Z,82.21
2023-02-01T13:49:28.997Z,82.60
2023-02-01T13:51:58.241Z,82.49
2023-02-01T13:54:48.049Z,82.83
2023-02-01T13:57:38.393Z,82.71
2023-02-01T14:00:23.883Z,81.99
2023-02-01T14:03:02.417Z,81.86
2023-02-01T14:05:31.851Z,82.12
2023-02-01T14:08:07.245Z,81.70
2023-02-01T14:10:46.063Z,81.97
2023-02-01T14:13:40.320Z,81.90
2023-02-01T14:16:07.388Z,82.07
2023-02-01T14:18:45.274Z,82.26
2023-02-01T14:21:23.771Z,82.42
2023-02-01T14:23:53.458Z,82.73
2023-02-01T14:26:46.888Z,82.03
2023-02-01T14:29:20.835Z,82.09
2023-02-01T14:32:06.780Z,82.50
2023-02-01T14:34:36.170Z,82.76
2023-02-01T14:37:09.999Z,82.68
2023-02-01T14:39:47.501Z,82.91
2023-02-01T14:42:28.223Z,82.31
2023-02-01T14:45:16.205Z,82.17
2023-02-01T14:47:43.187Z,82.10
2023-02-01T14:50:34.516Z,82.45
2023-02-01T14:53:16.149Z,81.99
2023-02-01T14:55:59.839Z,82.77
2023-02-01T14:58:35.500Z,83.11
2023-02-01T15:01:13.908Z,83.43
2023-02-01T15:04:11.185Z,84.07
2023-02-01T15:06:41.001Z,84.70
2023-02-01T15:09:18.188Z,84.66
2023-02-01T15:12:05.393Z,84.77
2023-02-01T15:14:35.760Z,84.34
2023-02-01T15:17:02.559Z,84.54
2023-02-01T15:19:31.503Z,85.18
2023-02-01T15:21:59.555Z,84.98
2023-02-01T15:24:28.163Z,85.00
2023-02-01T15:26:56.392Z,85.49
2023-02-01T15:29:28.954Z,85.39
2023-02-01T15:32:02.255Z,85.38
2023-02-01T15:34:50.748Z,85.22
2023-02-01T15:37:19.419Z,85.70
2023-02-01T15:40:06.202Z,84.90
2023-02-01T15:42:32.771Z,85.10
2023-02-01T15:44:59.667Z,85.15
2023-02-01T15:47:31.659Z,85.65
2023-02-01T15:50:00.932Z,85.33
2023-02-01T15:52:37.401Z,85.35
2023-02-01T15:55:09.983Z,85.07
2023-02-01T15:57:40.695Z,84.71
2023-02-01T16:00:22.518Z,84.99
2023-02-01T16:02:55.590Z,85.99
2023-02-01T16:05:45.860Z,85.47
2023-02-01T16:08:22.856Z,85.55
2023-02-01T16:10:52.444Z,85.60
2023-02-01T16:13:20.995Z,85.90
2023-02-01T16:15:48.984Z,85.69
2023-02-01T16:18:17.826Z,85.54
2023-02-01T16:20:45.344Z,86.04
2023-02-01T16:23:12.084Z,85.85
2023-02-01T16:28:50.483Z,85.89
2023-02-01T16:31:20.458Z,86.65
2023-02-01T16:33:51.333Z,86.44
2023-02-01T16:36:18.835Z,86.21
2023-02-01T16:38:54.847Z,85.62
2023-02-01T16:41:23.479Z,86.12
2023-02-01T16:43:58.905Z,85.90
2023-02-01T16:46:30.883Z,86.13
2023-02-01T16:48:59.749Z,86.74
2023-02-01T16:51:33.093Z,86.93
2023-02-01T16:54:00.663Z,87.36
2023-02-01T16:56:32.042Z,86.35
2023-02-01T16:58:58.551Z,86.31
2023-02-01T17:01:25.835Z,86.35
2023-02-01T17:03:52.710Z,85.75
2023-02-01T17:06:22.772Z,86.14
2023-02-01T17:08:53.872Z,86.13
2023-02-01T17:11:20.771Z,86.38
2023-02-01T17:13:47.740Z,86.50
2023-02-01T17:16:29.054Z,86.60
2023-02-01T17:18:59.680Z,87.19
2023-02-01T17:21:28.744Z,86.86
2023-02-01T17:23:56.056Z,87.01
2023-02-01T17:26:22.504Z,87.27
2023-02-01T17:28:49.118Z,87.11
2023-02-01T17:31:17.435Z,86.96
2023-02-01T17:33:44.838Z,87.10
2023-02-01T17:36:15.213Z,86.71
2023-02-01T17:38:43.213Z,87.29
2023-02-01T17:41:12.699Z,86.79
2023-02-01T17:43:39.319Z,86.42
2023-02-01T17:46:14.824Z,86.95
2023-02-01T17:48:41.793Z,86.52
2023-02-01T17:51:17.588Z,87.03
2023-02-01T17:53:58.022Z,87.13
2023-02-01T17:56:37.909Z,87.11
2023-02-01T17:59:04.836Z,86.81
2023-02-01T18:01:38.112Z,87.01
2023-02-01T18:04:04.651Z,87.16
2023-02-01T18:06:43.081Z,86.96
2023-02-01T18:09:09.884Z,86.86
2023-02-01T18:11:36.329Z,86.91
2023-02-01T18:14:02.956Z,87.57
2023-02-01T18:16:34.493Z,87.71
2023-02-01T18:19:05.184Z,88.89
2023-02-01T18:21:43.994Z,88.59
2023-02-01T18:24:15.343Z,88.46
2023-02-01T18:26:42.530Z,88.37
2023-02-01T18:29:10.358Z,88.60
2023-02-01T18:31:49.566Z,88.98
2023-02-01T18:34:25.202Z,89.53
2023-02-01T18:36:51.603Z,89.65
2023-02-01T18:39:18.423Z,90.17
2023-02-01T18:41:48.058Z,89.82
2023-02-01T18:44:15.973Z,89.66
2023-02-01T18:46:42.945Z,89.83
2023-02-01T18:49:09.818Z,89.53
2023-02-01T18:51:36.184Z,89.83
2023-02-01T18:54:02.843Z,89.47
2023-02-01T18:56:29.336Z,89.29
2023-02-01T18:58:57.772Z,89.64
2023-02-01T19:01:24.250Z,89.78
2023-02-01T19:03:53.421Z,89.91
2023-02-01T19:06:22.795Z,89.71
2023-02-01T19:08:50.844Z,89.38
2023-02-01T19:11:17.222Z,89.38
2023-02-01T19:13:43.816Z,89.16
2023-02-01T19:16:12.657Z,89.15
2023-02-01T19:18:39.964Z,88.92
2023-02-01T19:21:11.865Z,89.46
2023-02-01T19:23:39.733Z,89.16
2023-02-01T19:26:14.159Z,88.52
2023-02-01T19:28:41.217Z,88.28
2023-02-01T19:31:08.909Z,88.80
2023-02-01T19:33:36.253Z,88.86
2023-02-01T19:36:05.971Z,88.75
2023-02-01T19:38:33.341Z,88.72
2023-02-01T19:40:59.838Z,88.42
2023-02-01T19:43:32.219Z,88.93
2023-02-01T19:45:58.726Z,88.90
2023-02-01T19:48:36.795Z,89.04
2023-02-01T19:51:06.912Z,88.80
2023-02-01T19:53:33.379Z,88.68
2023-02-01T19:56:01.639Z,88.64
2023-02-01T19:58:29.293Z,89.10
2023-02-01T20:00:56.626Z,88.79
2023-02-01T20:03:23.889Z,88.64
2023-02-01T20:05:54.613Z,88.64
2023-02-01T20:08:22.708Z,88.68
2023-02-01T20:10:49.611Z,88.60
2023-02-01T20:13:16.284Z,88.74
2023-02-01T20:15:45.676Z,88.80
2023-02-01T20:18:12.374Z,89.01
2023-02-01T20:20:40.826Z,88.95
2023-02-01T20:23:07.341Z,88.76
2023-02-01T20:25:36.656Z,88.54
2023-02-01T20:28:03.753Z,88.97
2023-02-01T20:30:32.241Z,88.64
2023-02-01T20:32:58.631Z,88.96
2023-02-01T20:35:25.301Z,89.27
2023-02-01T20:37:52.819Z,89.19
2023-02-01T20:40:19.396Z,89.48
2023-02-01T20:42:46.243Z,89.54
2023-02-01T20:45:12.710Z,89.49
2023-02-01T20:47:41.427Z,89.62
2023-02-01T20:50:08.593Z,89.85
2023-02-01T20:52:35.094Z,89.94
2023-02-01T20:55:01.618Z,89.75
2023-02-01T20:57:28.070Z,89.68
2023-02-01T20:59:54.529Z,90.41
2023-02-01T21:02:20.974Z,90.08
2023-02-01T21:04:47.558Z,90.19
2023-02-01T21:07:14.403Z,90.59
2023-02-01T21:09:41.898Z,90.36
2023-02-01T21:12:08.554Z,90.92
2023-02-01T21:14:35.529Z,91.35
2023-02-01T21:17:02.200Z,91.58
2023-02-01T21:19:42.845Z,90.95
2023-02-01T21:22:10.940Z,90.92
2023-02-01T21:24:37.597Z,90.82
2023-02-01T21:27:04.424Z,90.40
2023-02-01T21:29:36.745Z,90.41
2023-02-01T21:32:04.022Z,90.19
2023-02-01T21:34:30.701Z,90.31
2023-02-01T21:36:57.144Z,90.34
2023-02-01T21:39:23.961Z,89.70
2023-02-01T21:42:09.155Z,90.10
2023-02-01T21:44:35.668Z,90.40
2023-02-01T21:47:02.383Z,89.94
2023-02-01T21:49:29.056Z,90.21
2023-02-01T21:52:06.624Z,90.28
2023-02-01T21:54:33.127Z,90.63
2023-02-01T21:57:00.040Z,89.78
2023-02-01T21:59:26.586Z,90.89
2023-02-01T22:01:53.160Z,90.29
2023-02-01T22:04:19.675Z,90.87
2023-02-01T22:06:46.436Z,91.11
2023-02-01T22:09:21.910Z,91.28
2023-02-01T22:11:49.480Z,91.84
2023-02-01T22:14:19.267Z,92.21
2023-02-01T22:16:46.493Z,92.44
2023-02-01T22:19:14.009Z,92.85
2023-02-01T22:21:42.462Z,93.39
2023-02-01T22:24:11.126Z,93.24
2023-02-01T22:26:37.726Z,93.90
2023-02-01T22:29:04.491Z,93.85
2023-02-01T22:31:31.053Z,93.65
2023-02-01T22:33:57.586Z,94.36
2023-02-01T22:36:25.156Z,94.40
2023-02-01T22:38:52.992Z,94.55
2023-02-01T22:41:20.319Z,94.99
2023-02-01T22:43:47.241Z,95.37
2023-02-01T22:46:16.228Z,95.31
2023-02-01T22:48:44.978Z,95.38
2023-02-01T22:51:17.245Z,95.79
2023-02-01T22:53:43.899Z,95.38
2023-02-01T22:56:12.271Z,96.22
2023-02-01T22:58:39.065Z,96.50
2023-02-01T23:01:08.170Z,96.91
2023-02-01T23:03:35.672Z,97.17
2023-02-01T23:06:03.431Z,97.04
2023-02-01T23:08:30.275Z,97.16
2023-02-01T23:11:06.709Z,97.52
2023-02-01T23:13:34.236Z,97.99
2023-02-01T23:16:05.612Z,97.92
2023-02-01T23:18:32.223Z,98.12
2023-02-01T23:21:03.730Z,98.36
2023-02-01T23:23:30.111Z,98.70
2023-02-01T23:25:56.459Z,98.55
2023-02-01T23:28:22.890Z,98.99
2023-02-01T23:30:49.433Z,99.30
2023-02-01T23:33:16.175Z,99.54
2023-02-01T23:35:42.635Z,99.34
2023-02-01T23:38:09.007Z,99.80
2023-02-01T23:40:35.579Z,99.48
2023-02-01T23:43:20.591Z,99.74
2023-02-01T23:45:46.960Z,99.54
2023-02-01T23:48:13.354Z,99.67
2023-02-01T23:50:39.894Z,99.42
2023-02-01T23:53:06.374Z,99.48
2023-02-01T23:55:32.727Z,99.48
2023-02-01T23:57:59.140Z,99.60
